map of EZE home
Great Circle Mapper logo
EZE - Airport
Location
City:  Buenos Aires, Distrito Federal, Argentina
Name:Aeropuerto Internacional Ezeiza/Ministro Pistarini
ICAO / IATA:SAEZ / EZE

Details
Type:Airport (Aerodrome, Airfield)
Use:Public/Civil, Military, International (customs port of entry)
Latitude:3449'20"S (-34.822221)
Longitude:5832'09"W (-58.535832)
Datum:WGS 1984
Elevation:67 ft (20 m)
Runways:2
Longest:10827 × 197 ft (3300 × 60 m), paved

Time
Time Zone:UTC-3
Local Time:

Weather
METAR:SAEZ 231500Z 17010KT 130V200 9999 SCT019 11/06 Q1017
TAF:SAEZ 230500Z 2306/2406 18010KT CAVOK TX12/2318Z TN04/2406Z
BECMG 2306/2309 9999 BKN010
BECMG 2318/2321 SCT030

Related Locations
Nearby:
Farthest:TAO: 12316 mi / 19821 km
Qingdao [Liuting Intl], Shandong, CN

Find:

   beyond  
but within

Other Information
Maps:
NOTAMs:
Links:
Sources:

  
flag of Argentina
flag of Distrito Federal
  

Airport Diagram

Airport diagram for EZE

Airport diagram (OBSOLETE) from NGA

Sectional Chart

Flight Planning
at skyvector.com

Satellite Image

Google Maps Satellite View

 

Copyright © 2004-2014 Karl L. Swartz. All rights reserved.
The Great Circle Mapper name and logo are trademarks of the Great Circle Mapper.
All other trademarks mentioned herein belong to their respective owners.
Please see credits for attibutions and further copyright information.

  Follow gcmap on Facebook Follow gcmap on Twitter

hCard Microformat

Geo Microformat